• Join FlightAware (Why Join?)
  • Login
  • US Flag 
01:55AM EDT


 

Airport Tracker/Info


-or-


 

Live Flight TrackerFlight Track Log ✈ BOE5 ✈ 08-Jun-2013 ✈ KBFI - KMWH

Flight Track Log - Related Links

Times and Time Zones

All times are in EDT time to prevent confusion due to time zone crossing. See the BOE5 flight status page for this flight to view local times or setup timezone preferences in your user account.

Time Position Orientation Groundspeed Altitude Reporting Facility
EDT Latitude Longitude Course Direction KTS MPH feet Rate Location/Type
12:55PM 47.5461 -122.3181 326° Northwest 170 196 1,200  Level Seattle Center
12:56PM 47.5967 -122.3689 326° Northwest 245 282 3,000 2,280 Climbing Seattle Center
12:57PM 47.6442 -122.4514 311° West 276 318 5,900 2,880 Climbing Seattle Center
12:58PM 47.7189 -122.4661 352° North 270 311 8,900 1,320 Climbing Seattle Center
01:00PM 47.8075 -122.4503 North 281 323 9,000 720 Climbing Seattle Center
01:01PM 47.8136 -122.3478 85° East 316 364 10,400 1,560 Climbing Seattle Center
01:02PM 47.7836 -122.2028 107° East 407 468 11,900 1,260 Climbing Seattle Center
01:03PM 47.7106 -122.0719 130° Southeast 425 489 13,000 540 Climbing Seattle Center
01:04PM 47.6217 -121.9603 140° Southeast 417 480 13,000  Level Seattle Center
01:05PM 47.5275 -121.8056 132° Southeast 424 488 13,000  Level Seattle Center
01:06PM 47.4764 -121.6503 116° Southeast 421 484 13,000 -120 Level Seattle Center
01:07PM 47.4394 -121.4725 107° East 425 489 12,800 -300 Descending Seattle Center
01:08PM 47.4228 -121.3025 98° East 421 484 12,400 -300 Descending Seattle Center
01:09PM 47.4108 -121.1369 96° East 417 480 12,200 -300 Descending Seattle Center
01:10PM 47.4033 -120.9711 94° East 412 474 11,900 -480 Descending Seattle Center
01:11PM 47.3944 -120.7978 94° East 433 498 11,300 -300 Descending Seattle Center
01:12PM 47.3844 -120.6172 95° East 440 506 11,300 60 Level Seattle Center
01:13PM 47.3733 -120.4158 95° East 437 503 11,500 60 Climbing Seattle Center
01:14PM 47.3650 -120.2453 94° East 412 474 11,500 -120 Level Seattle Center
01:15PM 47.3547 -120.0686 95° East 404 465 11,300 -720 Descending Seattle Center
01:16PM 47.3469 -119.9239 94° East 352 405 10,100 -1,440 Descending Seattle Center
01:17PM 47.3389 -119.7989 95° East 310 357 8,400 -1,560 Descending Seattle Center
01:18PM 47.3322 -119.6850 95° East 274 315 7,000 -1,440 Descending Seattle Center
01:19PM 47.3408 -119.5781 83° East 264 304 5,500 -1,560 Descending Seattle Center
01:20PM 47.3556 -119.4672 79° East 257 296 3,900 -1,260 Descending Seattle Center
01:21PM 47.3392 -119.3936 108° East 204 235 3,000 -900 Descending Seattle Center